createdAt,value
2019-01-23T00:01:46.573Z,37.93
2019-01-23T00:04:26.751Z,42.13
2019-01-23T00:07:06.841Z,49.10
2019-01-23T00:09:47.092Z,39.18
2019-01-23T00:12:27.198Z,44.48
2019-01-23T00:15:07.063Z,43.33
2019-01-23T00:17:47.323Z,40.20
2019-01-23T00:20:27.293Z,43.28
2019-01-23T00:23:07.292Z,50.83
2019-01-23T00:25:47.380Z,47.25
2019-01-23T00:28:27.290Z,40.12
2019-01-23T00:31:07.121Z,38.55
2019-01-23T00:33:47.091Z,39.55
2019-01-23T00:36:27.064Z,40.17
2019-01-23T00:39:07.123Z,38.75
2019-01-23T00:41:46.929Z,39.98
2019-01-23T00:44:27.147Z,40.23
2019-01-23T00:47:07.231Z,37.78
2019-01-23T00:49:47.558Z,40.15
2019-01-23T00:52:27.517Z,40.65
2019-01-23T00:55:07.529Z,39.35
2019-01-23T00:57:47.525Z,42.62
2019-01-23T01:00:27.516Z,40.05
2019-01-23T01:03:07.330Z,42.50
2019-01-23T01:05:47.886Z,41.00
2019-01-23T01:08:28.507Z,35.00
2019-01-23T01:11:08.174Z,40.80
2019-01-23T01:13:48.367Z,40.92
2019-01-23T01:16:28.466Z,48.50
2019-01-23T01:19:08.549Z,48.48
2019-01-23T01:21:48.674Z,42.05
2019-01-23T01:24:28.747Z,49.05
2019-01-23T01:27:08.747Z,44.03
2019-01-23T01:29:48.474Z,48.38
2019-01-23T01:32:28.584Z,43.65
2019-01-23T01:35:08.903Z,44.50
2019-01-23T01:37:48.915Z,42.65
2019-01-23T01:40:28.985Z,38.88
2019-01-23T01:43:09.084Z,38.75
2019-01-23T01:45:49.056Z,38.75
2019-01-23T01:48:28.954Z,37.55
2019-01-23T01:51:08.868Z,41.77
2019-01-23T01:53:49.070Z,41.42
2019-01-23T01:56:29.076Z,40.08
2019-01-23T01:59:09.274Z,42.08
2019-01-23T02:01:49.176Z,41.40
2019-01-23T02:04:29.132Z,41.33
2019-01-23T02:07:09.058Z,39.85
2019-01-23T02:09:49.116Z,43.23
2019-01-23T02:12:29.158Z,44.38
2019-01-23T02:15:09.344Z,42.30
2019-01-23T02:17:49.247Z,38.02
2019-01-23T02:20:29.270Z,41.42
2019-01-23T02:23:09.384Z,39.30
2019-01-23T02:25:49.374Z,43.13
2019-01-23T02:28:29.704Z,41.02
2019-01-23T02:31:09.764Z,44.42
2019-01-23T02:33:49.591Z,40.80
2019-01-23T02:36:29.774Z,42.10
2019-01-23T02:39:09.510Z,40.58
2019-01-23T02:41:50.969Z,44.10
2019-01-23T02:44:31.609Z,42.08
2019-01-23T02:47:11.523Z,44.93
2019-01-23T02:49:51.708Z,38.17
2019-01-23T02:52:31.744Z,39.53
2019-01-23T02:55:11.821Z,42.83
2019-01-23T02:57:51.759Z,48.78
2019-01-23T03:00:31.907Z,39.03
2019-01-23T03:03:12.074Z,38.90
2019-01-23T03:05:52.277Z,45.90
2019-01-23T03:08:32.152Z,41.23
2019-01-23T03:11:12.144Z,44.98
2019-01-23T03:13:52.173Z,45.08
2019-01-23T03:16:32.062Z,39.83
2019-01-23T03:19:12.265Z,39.92
2019-01-23T03:21:52.295Z,41.65
2019-01-23T03:24:32.311Z,45.60
2019-01-23T03:27:12.596Z,51.73
2019-01-23T03:29:52.595Z,43.17
2019-01-23T03:32:32.531Z,48.40
2019-01-23T03:35:12.715Z,44.93
2019-01-23T03:37:52.869Z,49.70
2019-01-23T03:40:32.985Z,47.58
2019-01-23T03:43:13.009Z,52.20
2019-01-23T03:45:52.897Z,47.50
2019-01-23T03:48:33.357Z,52.03
2019-01-23T03:51:13.324Z,48.33
2019-01-23T03:53:53.477Z,48.50
2019-01-23T03:56:33.399Z,48.48
2019-01-23T03:59:13.424Z,47.93
2019-01-23T04:01:53.298Z,51.65
2019-01-23T04:04:33.370Z,53.17
2019-01-23T04:07:13.621Z,47.03
2019-01-23T04:09:53.792Z,48.55
2019-01-23T04:12:33.948Z,49.03
2019-01-23T04:15:13.973Z,46.80
2019-01-23T04:17:54.055Z,47.85
2019-01-23T04:20:34.088Z,48.40
2019-01-23T04:23:13.848Z,46.28
2019-01-23T04:25:53.829Z,50.67
2019-01-23T04:28:33.883Z,44.67
2019-01-23T04:31:14.023Z,43.13
2019-01-23T04:33:54.260Z,46.20
2019-01-23T04:36:34.242Z,51.23
2019-01-23T04:39:14.550Z,47.50
2019-01-23T04:41:54.438Z,47.00
2019-01-23T04:44:34.596Z,50.28
2019-01-23T04:47:14.705Z,53.23
2019-01-23T04:49:54.843Z,51.40
2019-01-23T04:53:00.153Z,52.30
2019-01-23T04:55:40.384Z,54.48
2019-01-23T04:58:20.945Z,48.10
2019-01-23T05:01:01.044Z,51.18
2019-01-23T05:03:41.163Z,57.10
2019-01-23T05:06:21.185Z,53.87
2019-01-23T05:09:01.396Z,50.17
2019-01-23T05:11:41.332Z,49.53
2019-01-23T05:14:21.450Z,49.08
2019-01-23T05:17:01.785Z,49.20
2019-01-23T05:19:41.864Z,49.70
2019-01-23T05:22:21.793Z,51.60
2019-01-23T05:25:02.123Z,60.85
2019-01-23T05:27:42.117Z,55.55
2019-01-23T05:30:22.489Z,55.40
2019-01-23T05:33:02.541Z,52.40
2019-01-23T05:35:42.602Z,59.77
2019-01-23T05:38:22.641Z,52.73
2019-01-23T05:41:02.762Z,51.85
2019-01-23T05:43:42.896Z,51.00
2019-01-23T05:46:23.134Z,51.50
2019-01-23T05:49:03.058Z,58.75
2019-01-23T05:51:43.105Z,50.25
2019-01-23T05:54:23.078Z,45.45
2019-01-23T05:57:03.007Z,49.00
2019-01-23T05:59:42.979Z,45.78
2019-01-23T06:02:22.821Z,41.80
2019-01-23T06:05:03.196Z,47.83
2019-01-23T06:07:43.231Z,44.60
2019-01-23T06:10:23.367Z,43.92
2019-01-23T06:13:03.392Z,45.70
2019-01-23T06:15:43.439Z,43.55
2019-01-23T06:18:23.497Z,47.23
2019-01-23T06:21:03.514Z,45.28
2019-01-23T06:23:43.598Z,56.30
2019-01-23T06:26:23.343Z,47.78
2019-01-23T06:29:03.434Z,48.42
2019-01-23T06:31:43.588Z,50.15
2019-01-23T06:34:23.601Z,50.00
2019-01-23T06:37:03.578Z,51.30
2019-01-23T06:39:43.419Z,47.35
2019-01-23T06:42:23.504Z,39.25
2019-01-23T06:45:03.585Z,49.00
2019-01-23T06:47:43.866Z,47.30
2019-01-23T06:50:23.828Z,49.20
2019-01-23T06:53:03.800Z,52.10
2019-01-23T06:55:43.781Z,46.77
2019-01-23T06:58:23.939Z,53.85
2019-01-23T07:01:04.015Z,50.35
2019-01-23T07:03:44.047Z,42.55
2019-01-23T07:06:23.927Z,45.73
2019-01-23T07:09:04.154Z,46.92
2019-01-23T07:11:44.221Z,47.93
2019-01-23T07:14:24.195Z,53.17
2019-01-23T07:17:04.160Z,53.05
2019-01-23T07:19:44.219Z,56.28
2019-01-23T07:22:24.115Z,50.80
2019-01-23T07:25:03.987Z,48.87
2019-01-23T07:27:44.117Z,46.33
2019-01-23T07:30:24.602Z,48.25
2019-01-23T07:33:04.339Z,48.40
2019-01-23T07:35:44.476Z,56.18
2019-01-23T07:38:24.745Z,48.15
2019-01-23T07:41:04.697Z,50.10
2019-01-23T07:43:44.614Z,46.63
2019-01-23T07:46:24.791Z,49.08
2019-01-23T07:49:04.691Z,47.65
2019-01-23T07:51:44.811Z,51.50
2019-01-23T07:54:24.895Z,50.38
2019-01-23T07:57:05.131Z,47.38
2019-01-23T07:59:45.019Z,54.75
2019-01-23T08:02:25.445Z,49.88
2019-01-23T08:05:05.349Z,47.85
2019-01-23T08:07:45.508Z,50.48
2019-01-23T08:10:25.830Z,52.03
2019-01-23T08:13:05.762Z,57.15
2019-01-23T08:15:46.035Z,55.20
2019-01-23T08:18:25.898Z,56.28
2019-01-23T08:21:05.827Z,49.40
2019-01-23T08:23:45.894Z,49.13
2019-01-23T08:26:25.933Z,53.25
2019-01-23T08:29:05.951Z,61.83
2019-01-23T08:31:45.846Z,56.25
2019-01-23T08:34:25.795Z,45.90
2019-01-23T08:37:05.616Z,52.50
2019-01-23T08:39:45.705Z,55.43
2019-01-23T08:42:25.747Z,49.05
2019-01-23T08:45:05.659Z,57.15
2019-01-23T08:47:45.998Z,52.35
2019-01-23T08:50:25.978Z,57.23
2019-01-23T08:53:06.248Z,62.35
2019-01-23T08:55:46.090Z,61.88
2019-01-23T08:58:25.944Z,50.83
2019-01-23T09:01:06.155Z,55.75
2019-01-23T09:03:46.047Z,58.25
2019-01-23T09:06:26.167Z,51.75
2019-01-23T09:09:06.305Z,55.75
2019-01-23T09:11:46.210Z,53.20
2019-01-23T09:14:26.407Z,58.17
2019-01-23T09:17:06.394Z,53.05
2019-01-23T09:19:46.472Z,55.28
2019-01-23T09:22:26.498Z,56.92
2019-01-23T09:25:06.497Z,54.48
2019-01-23T09:27:46.619Z,55.45
2019-01-23T09:30:26.679Z,52.23
2019-01-23T09:33:06.957Z,56.35
2019-01-23T09:35:46.974Z,59.08
2019-01-23T09:38:27.101Z,52.17
2019-01-23T09:41:07.023Z,68.25
2019-01-23T09:43:47.092Z,50.67
2019-01-23T09:46:27.007Z,54.80
2019-01-23T09:49:07.129Z,56.20
2019-01-23T09:51:47.089Z,61.00
2019-01-23T09:54:27.137Z,55.45
2019-01-23T09:57:06.933Z,51.53
2019-01-23T09:59:46.888Z,53.80
2019-01-23T10:02:26.865Z,53.08
2019-01-23T10:05:07.014Z,52.00
2019-01-23T10:07:47.012Z,53.15
2019-01-23T10:10:26.940Z,51.95
2019-01-23T10:13:06.922Z,62.03
2019-01-23T10:15:46.859Z,64.00
2019-01-23T10:18:26.763Z,50.98
2019-01-23T10:21:06.736Z,46.65
2019-01-23T10:23:46.783Z,51.90
2019-01-23T10:26:26.908Z,47.27
2019-01-23T10:29:06.779Z,48.33
2019-01-23T10:31:46.922Z,53.80
2019-01-23T10:34:26.893Z,45.08
2019-01-23T10:37:07.070Z,52.65
2019-01-23T10:39:47.047Z,46.15
2019-01-23T10:42:27.335Z,50.00
2019-01-23T10:45:07.292Z,48.08
2019-01-23T10:47:47.366Z,53.85
2019-01-23T10:50:27.363Z,47.62
2019-01-23T10:53:07.807Z,45.60
2019-01-23T10:55:47.624Z,40.17
2019-01-23T10:58:27.771Z,38.13
2019-01-23T11:01:13.336Z,49.58
2019-01-23T11:03:50.045Z,45.15
2019-01-23T11:06:30.122Z,47.50
2019-01-23T11:09:10.226Z,51.55
2019-01-23T11:11:50.144Z,51.50
2019-01-23T11:14:30.378Z,49.03
2019-01-23T11:17:10.444Z,48.90
2019-01-23T11:19:50.500Z,45.45
2019-01-23T11:22:30.579Z,43.73
2019-01-23T11:25:10.800Z,35.40
2019-01-23T11:27:50.776Z,50.23
2019-01-23T11:30:30.935Z,42.67
2019-01-23T11:33:10.980Z,42.65
2019-01-23T11:35:50.949Z,40.58
2019-01-23T11:38:31.064Z,42.43
2019-01-23T11:41:11.277Z,38.08
2019-01-23T11:43:51.206Z,37.63
2019-01-23T11:46:31.181Z,46.92
2019-01-23T11:49:11.149Z,43.17
2019-01-23T11:51:51.441Z,40.05
2019-01-23T11:54:31.244Z,42.40
2019-01-23T11:57:11.176Z,43.85
2019-01-23T11:59:51.079Z,41.37
2019-01-23T12:02:31.220Z,42.90
2019-01-23T12:05:11.034Z,43.42
2019-01-23T12:07:51.270Z,44.55
2019-01-23T12:10:31.333Z,44.15
2019-01-23T12:13:11.358Z,44.10
2019-01-23T12:15:51.411Z,32.30
2019-01-23T12:18:31.388Z,41.55
2019-01-23T12:21:11.878Z,39.13
2019-01-23T12:23:58.090Z,40.48
2019-01-23T12:26:33.523Z,44.67
2019-01-23T12:29:13.256Z,39.48
2019-01-23T12:31:53.262Z,39.80
2019-01-23T12:34:33.129Z,42.17
2019-01-23T12:37:13.160Z,39.55
2019-01-23T12:39:53.343Z,36.70
2019-01-23T12:42:33.549Z,45.17
2019-01-23T12:45:13.564Z,43.63
2019-01-23T12:47:53.781Z,40.85
2019-01-23T12:50:33.853Z,40.43
2019-01-23T12:53:14.204Z,43.15
2019-01-23T12:55:54.091Z,44.30
2019-01-23T12:58:34.072Z,47.25
2019-01-23T13:01:13.965Z,47.93
2019-01-23T13:03:53.896Z,50.60
2019-01-23T13:06:33.853Z,42.13
2019-01-23T13:09:13.920Z,44.48
2019-01-23T13:11:53.944Z,46.42
2019-01-23T13:14:33.979Z,41.77
2019-01-23T13:17:13.916Z,47.98
2019-01-23T13:19:53.845Z,47.45
2019-01-23T13:22:33.964Z,46.25
2019-01-23T13:25:14.020Z,46.37
2019-01-23T13:27:54.156Z,39.53
2019-01-23T13:30:34.319Z,40.17
2019-01-23T13:33:14.342Z,46.08
2019-01-23T13:35:54.261Z,48.40
2019-01-23T13:38:34.305Z,44.38
2019-01-23T13:41:14.264Z,46.55
2019-01-23T13:43:54.089Z,48.20
2019-01-23T13:46:34.215Z,42.55
2019-01-23T13:49:14.347Z,45.08
2019-01-23T13:51:54.503Z,49.65
2019-01-23T13:54:34.599Z,52.83
2019-01-23T13:57:14.556Z,48.68
2019-01-23T13:59:54.587Z,48.35
2019-01-23T14:02:34.350Z,46.55
2019-01-23T14:05:14.305Z,44.67
2019-01-23T14:07:54.260Z,47.60
2019-01-23T14:10:34.215Z,50.48
2019-01-23T14:13:14.209Z,36.08
2019-01-23T14:15:53.956Z,44.27
2019-01-23T14:18:34.080Z,50.48
2019-01-23T14:21:13.897Z,48.28
2019-01-23T14:23:54.135Z,46.68
2019-01-23T14:26:34.148Z,44.45
2019-01-23T14:29:14.265Z,42.98
2019-01-23T14:31:54.400Z,49.93
2019-01-23T14:34:34.500Z,48.92
2019-01-23T14:37:14.428Z,46.30
2019-01-23T14:39:54.590Z,44.40
2019-01-23T14:42:34.660Z,50.52
2019-01-23T14:45:14.857Z,50.52
2019-01-23T14:47:54.989Z,47.65
2019-01-23T14:50:35.007Z,47.25
2019-01-23T14:53:15.388Z,52.78
2019-01-23T14:55:55.089Z,50.95
2019-01-23T14:58:35.313Z,53.58
2019-01-23T15:01:15.296Z,55.98
2019-01-23T15:03:55.321Z,50.88
2019-01-23T15:06:35.377Z,50.10
2019-01-23T15:09:15.400Z,47.27
2019-01-23T15:11:55.136Z,49.13
2019-01-23T15:14:35.319Z,50.95
2019-01-23T15:17:15.494Z,53.52
2019-01-23T15:19:55.552Z,46.65
2019-01-23T15:22:35.624Z,56.73
2019-01-23T15:25:15.585Z,55.08
2019-01-23T15:27:55.728Z,50.17
2019-01-23T15:30:35.953Z,52.40
2019-01-23T15:33:15.979Z,49.58
2019-01-23T15:35:56.020Z,50.08
2019-01-23T15:38:36.198Z,53.45
2019-01-23T15:41:16.483Z,54.65
2019-01-23T15:43:56.451Z,53.60
2019-01-23T15:46:36.332Z,46.48
2019-01-23T15:49:16.269Z,53.23
2019-01-23T15:51:56.452Z,53.90
2019-01-23T15:54:36.516Z,46.00
2019-01-23T15:57:16.766Z,54.93
2019-01-23T15:59:56.724Z,49.10
2019-01-23T16:02:36.693Z,46.68
2019-01-23T16:05:16.663Z,54.30
2019-01-23T16:07:56.846Z,51.30
2019-01-23T16:10:36.817Z,57.38
2019-01-23T16:13:16.736Z,55.98
2019-01-23T16:15:56.628Z,57.50
2019-01-23T16:18:36.759Z,55.00
2019-01-23T16:21:16.774Z,59.95
2019-01-23T16:23:56.946Z,52.00
2019-01-23T16:26:36.814Z,57.30
2019-01-23T16:29:16.752Z,54.85
2019-01-23T16:31:56.826Z,53.35
2019-01-23T16:34:36.991Z,52.65
2019-01-23T16:37:16.883Z,65.90
2019-01-23T16:39:56.930Z,55.90
2019-01-23T16:42:37.685Z,52.73
2019-01-23T16:45:17.892Z,56.58
2019-01-23T16:47:57.839Z,54.48
2019-01-23T16:50:37.729Z,55.28
2019-01-23T16:53:17.844Z,56.00
2019-01-23T16:55:57.891Z,55.45
2019-01-23T16:58:37.955Z,61.40
2019-01-23T17:01:17.706Z,60.55
2019-01-23T17:03:58.041Z,70.28
2019-01-23T17:06:38.095Z,64.25
2019-01-23T17:09:18.007Z,58.87
2019-01-23T17:11:58.006Z,63.80
2019-01-23T17:14:38.025Z,66.77
2019-01-23T17:17:18.046Z,66.42
2019-01-23T17:19:59.271Z,82.02
2019-01-23T17:22:39.949Z,66.07
2019-01-23T17:25:19.949Z,70.65
2019-01-23T17:27:59.984Z,65.85
2019-01-23T17:30:40.081Z,51.55
2019-01-23T17:33:19.934Z,69.72
2019-01-23T17:35:59.845Z,79.22
2019-01-23T17:38:39.746Z,83.25
2019-01-23T17:41:19.747Z,67.17
2019-01-23T17:44:00.404Z,76.77
2019-01-23T17:46:41.168Z,71.33
2019-01-23T17:49:21.070Z,75.85
2019-01-23T17:52:01.081Z,75.05
2019-01-23T17:54:41.114Z,77.80
2019-01-23T17:57:21.085Z,77.80
2019-01-23T18:00:01.310Z,77.25
2019-01-23T18:02:41.170Z,81.90
2019-01-23T18:05:21.061Z,72.58
2019-01-23T18:08:01.083Z,84.37
2019-01-23T18:10:41.312Z,79.55
2019-01-23T18:13:21.131Z,82.12
2019-01-23T18:16:01.225Z,76.55
2019-01-23T18:18:41.319Z,77.37
2019-01-23T18:21:21.647Z,67.12
2019-01-23T18:24:01.625Z,81.53
2019-01-23T18:26:41.465Z,88.30
2019-01-23T18:29:21.405Z,86.25
2019-01-23T18:32:01.531Z,91.55
2019-01-23T18:34:41.448Z,88.78
2019-01-23T18:37:21.340Z,88.27
2019-01-23T18:40:01.665Z,81.20
2019-01-23T18:42:41.730Z,89.05
2019-01-23T18:45:21.745Z,75.20
2019-01-23T18:48:01.647Z,89.28
2019-01-23T18:50:41.803Z,92.10
2019-01-23T18:53:21.970Z,84.25
2019-01-23T18:56:01.864Z,76.75
2019-01-23T18:58:41.760Z,80.70
2019-01-23T19:01:21.824Z,84.97
2019-01-23T19:04:02.085Z,84.28
2019-01-23T19:06:42.272Z,82.50
2019-01-23T19:09:22.387Z,89.50
2019-01-23T19:12:02.362Z,80.07
2019-01-23T19:14:42.416Z,79.40
2019-01-23T19:17:22.517Z,83.22
2019-01-23T19:20:03.036Z,78.97
2019-01-23T19:22:43.379Z,78.35
2019-01-23T19:25:23.403Z,79.37
2019-01-23T19:28:03.477Z,66.07
2019-01-23T19:30:43.558Z,82.40
2019-01-23T19:33:23.524Z,80.40
2019-01-23T19:36:03.692Z,83.25
2019-01-23T19:38:44.940Z,82.37
2019-01-23T19:41:26.251Z,85.15
2019-01-23T19:44:05.941Z,78.05
2019-01-23T19:46:46.229Z,85.70
2019-01-23T19:49:26.096Z,84.95
2019-01-23T19:52:06.229Z,80.90
2019-01-23T19:54:46.406Z,77.27
2019-01-23T19:57:26.443Z,76.62
2019-01-23T20:00:06.404Z,77.27
2019-01-23T20:02:46.357Z,82.53
2019-01-23T20:05:26.320Z,79.45
2019-01-23T20:08:06.126Z,86.10
2019-01-23T20:10:46.149Z,78.70
2019-01-23T20:13:26.125Z,84.07
2019-01-23T20:16:06.333Z,81.90
2019-01-23T20:18:46.207Z,76.35
2019-01-23T20:21:26.213Z,72.22
2019-01-23T20:24:06.249Z,74.50
2019-01-23T20:26:47.708Z,88.12
2019-01-23T20:29:27.709Z,86.05
2019-01-23T20:32:07.771Z,80.00
2019-01-23T20:34:47.784Z,81.87
2019-01-23T20:37:27.767Z,83.97
2019-01-23T20:40:07.783Z,79.85
2019-01-23T20:42:47.891Z,79.65
2019-01-23T20:45:27.916Z,67.12
2019-01-23T20:48:07.844Z,76.22
2019-01-23T20:50:48.036Z,87.12
2019-01-23T20:53:28.071Z,61.00
2019-01-23T20:56:07.950Z,79.03
2019-01-23T20:58:47.999Z,84.30
2019-01-23T21:01:27.969Z,83.62
2019-01-23T21:04:08.149Z,79.67
2019-01-23T21:06:48.251Z,64.72
2019-01-23T21:09:28.164Z,76.90
2019-01-23T21:12:08.136Z,84.40
2019-01-23T21:14:48.080Z,78.37
2019-01-23T21:17:27.989Z,76.12
2019-01-23T21:20:08.065Z,82.90
2019-01-23T21:22:47.972Z,82.72
2019-01-23T21:25:27.982Z,85.50
2019-01-23T21:28:07.831Z,75.00
2019-01-23T21:30:47.992Z,63.33
2019-01-23T21:33:27.843Z,72.47
2019-01-23T21:36:08.013Z,77.47
2019-01-23T21:38:48.257Z,75.90
2019-01-23T21:41:28.251Z,60.15
2019-01-23T21:44:08.240Z,66.22
2019-01-23T21:46:48.382Z,71.33
2019-01-23T21:49:28.292Z,70.65
2019-01-23T21:52:08.197Z,70.15
2019-01-23T21:54:48.325Z,68.65
2019-01-23T21:57:28.305Z,68.07
2019-01-23T22:00:10.281Z,69.42
2019-01-23T22:02:50.525Z,69.00
2019-01-23T22:05:30.553Z,74.67
2019-01-23T22:08:10.675Z,75.05
2019-01-23T22:10:50.709Z,71.62
2019-01-23T22:13:30.743Z,72.85
2019-01-23T22:16:10.751Z,70.90
2019-01-23T22:18:50.769Z,74.62
2019-01-23T22:21:30.948Z,70.95
2019-01-23T22:24:10.796Z,68.10
2019-01-23T22:26:50.867Z,64.12
2019-01-23T22:29:30.875Z,75.80
2019-01-23T22:32:10.707Z,72.22
2019-01-23T22:34:50.649Z,60.80
2019-01-23T22:37:30.825Z,62.15
2019-01-23T22:40:10.943Z,66.47
2019-01-23T22:42:51.300Z,64.75
2019-01-23T22:45:31.168Z,78.00
2019-01-23T22:48:11.308Z,76.67
2019-01-23T22:50:51.186Z,71.80
2019-01-23T22:53:31.291Z,67.58
2019-01-23T22:56:11.443Z,78.37
2019-01-23T22:58:51.560Z,76.35
2019-01-23T23:01:31.529Z,67.40
2019-01-23T23:04:11.157Z,68.92
2019-01-23T23:06:51.340Z,71.28
2019-01-23T23:09:31.459Z,74.90
2019-01-23T23:12:11.556Z,72.37
2019-01-23T23:14:51.385Z,72.27
2019-01-23T23:17:31.718Z,77.95
2019-01-23T23:20:11.593Z,67.60
2019-01-23T23:22:51.719Z,76.57
2019-01-23T23:25:31.712Z,73.87
2019-01-23T23:28:12.053Z,78.55
2019-01-23T23:30:52.067Z,78.37
2019-01-23T23:33:31.910Z,75.62
2019-01-23T23:36:11.686Z,73.45
2019-01-23T23:38:51.765Z,72.97
2019-01-23T23:41:31.764Z,77.27
2019-01-23T23:44:11.745Z,70.97
2019-01-23T23:46:51.885Z,65.60
2019-01-23T23:49:31.699Z,74.45
2019-01-23T23:52:11.972Z,71.87
2019-01-23T23:54:52.116Z,71.15
2019-01-23T23:57:32.288Z,81.17
